Flight Track Log - Related Links

Times and Time Zones

All times are in EDT time to prevent confusion due to time zone crossing. See the N813MK flight status page for this flight to view local times or setup timezone preferences in your user account.


Time Position Orientation Groundspeed Altitude Reporting Facility
EDT Latitude Longitude Course Direction KTS MPH feet Rate Location/Type
Fri 10:14:12 AM 32.8500 -117.0167 360° North 160 184 1,900  Level Southern California TRACON
Fri 10:16:12 AM 32.9419 -117.0161 360° North 227 261 5,500 1,923 Climbing Los Angeles Center
Fri 10:17:13 AM 32.9761 -116.9408 62° Northeast 252 290 7,700 2,732 Climbing Los Angeles Center
Fri 10:18:15 AM 33.0206 -116.8442 61° Northeast 271 312 11,100 2,565 Climbing Los Angeles Center
Fri 10:19:17 AM 33.0633 -116.7525 61° Northeast 299 344 13,000 1,951 Climbing Los Angeles Center
Fri 10:20:18 AM 33.1128 -116.6481 61° Northeast 342 394 15,100 2,195 Climbing Los Angeles Center
Fri 10:21:20 AM 33.1794 -116.5503 51° Northeast 367 422 17,500 2,516 Climbing Los Angeles Center
Fri 10:22:22 AM 33.2675 -116.4739 36° Northeast 384 442 20,300 2,829 Climbing Los Angeles Center
Fri 10:23:23 AM 33.3558 -116.3983 36° Northeast 389 448 23,300 2,634 Climbing Los Angeles Center
Fri 10:24:25 AM 33.4419 -116.3222 36° Northeast 385 443 25,700 1,790 Climbing Los Angeles Center
Fri 10:25:27 AM 33.5331 -116.2442 36° Northeast 395 455 27,000 629 Climbing Los Angeles Center
Fri 10:26:29 AM 33.6264 -116.1436 42° Northeast 454 522 27,000 49 Level Los Angeles Center
Fri 10:27:30 AM 33.6750 -116.0047 67° East 454 522 27,100 976 Climbing Los Angeles Center
Fri 10:28:32 AM 33.7281 -115.8375 69° East 449 517 29,000 927 Climbing Los Angeles Center
Fri 10:29:33 AM 33.7736 -115.6864 70° East 476 548 29,000  Level Los Angeles Center
Fri 10:30:35 AM 33.8197 -115.5325 70° East 488 562 29,000  Level Los Angeles Center
Fri 10:31:37 AM 33.8658 -115.3800 70° East 486 559 29,000  Level Los Angeles Center
Fri 10:32:38 AM 33.9111 -115.2283 70° East 484 557 29,000 341 Level Los Angeles Center
Fri 10:33:40 AM 33.9458 -115.0736 75° East 482 555 29,700 1,268 Climbing Los Angeles Center
Fri 10:34:41 AM 33.9744 -114.9139 78° East 487 560 31,600 2,341 Climbing Los Angeles Center
Fri 10:35:43 AM 34.0089 -114.7250 78° East 480 552 34,500 2,371 Climbing Los Angeles Center
Fri 10:36:45 AM 34.0364 -114.5722 78° East 465 535 36,500 1,756 Climbing Los Angeles Center
Fri 10:37:46 AM 34.0639 -114.4217 78° East 461 531 38,100 1,255 Climbing Los Angeles Center
Fri 10:38:35 AM 34.0869 -114.3094 76° East 472 543 38,800 1,027 Climbing Albuquerque Center
Fri 10:39:37 AM 34.1150 -114.1394 79° East 466 536 40,000 878 Climbing Albuquerque Center
Fri 10:40:38 AM 34.1411 -113.9872 78° East 465 535 40,600 488 Climbing Albuquerque Center
Fri 10:41:40 AM 34.1667 -113.8339 79° East 465 535 41,000 194 Climbing Albuquerque Center
Fri 10:42:42 AM 34.1947 -113.6747 78° East 470 541 41,000  Level Albuquerque Center
Fri 10:43:44 AM 34.2231 -113.5086 78° East 486 559 41,000  Level Albuquerque Center
Fri 10:44:46 AM 34.2506 -113.3464 78° East 492 566 41,000  Level Albuquerque Center
Fri 10:45:48 AM 34.2831 -113.1522 78° East 491 565 41,000  Level Albuquerque Center
Fri 10:47:00 AM 34.3137 -112.9584 79° East  Level FlightAware Approximate
Fri 10:47:51 AM 34.3364 -112.8339 79° East 483 556 41,000  Level Albuquerque Center
Fri 10:48:53 AM 34.3619 -112.6742 79° East 484 557 41,000  Level Albuquerque Center
Fri 10:49:55 AM 34.3886 -112.5175 78° East 478 550 41,000  Level Albuquerque Center
Fri 10:50:57 AM 34.4136 -112.3583 79° East 478 550 41,000  Level Albuquerque Center
Fri 10:51:59 AM 34.4392 -112.1986 79° East 480 552 41,000  Level Albuquerque Center
Fri 10:53:01 AM 34.4697 -112.0067 79° East 481 554 41,000  Level Albuquerque Center
Fri 10:54:03 AM 34.4942 -111.8458 80° East 482 555 41,000  Level Albuquerque Center
Fri 10:55:05 AM 34.5206 -111.6839 79° East 485 558 41,000  Level Albuquerque Center
Fri 10:56:07 AM 34.5456 -111.5217 79° East 486 559 41,000  Level Albuquerque Center
Fri 10:57:09 AM 34.5697 -111.3594 80° East 487 560 41,000  Level Albuquerque Center
Fri 10:58:11 AM 34.5944 -111.1961 80° East 489 563 41,000  Level Albuquerque Center
Fri 10:59:13 AM 34.6192 -111.0331 80° East 492 566 41,000  Level Albuquerque Center
Fri 11:00:15 AM 34.6481 -110.8361 80° East 493 567 41,000  Level Albuquerque Center
Fri 11:01:17 AM 34.6711 -110.6853 79° East 495 570 41,000  Level Albuquerque Center
Fri 11:02:19 AM 34.6994 -110.5036 79° East 492 566 41,000  Level Albuquerque Center
Fri 11:03:21 AM 34.7219 -110.3453 80° East 495 570 41,000  Level Albuquerque Center
Fri 11:04:23 AM 34.7486 -110.1600 80° East 498 573 41,000  Level Albuquerque Center
Fri 11:05:25 AM 34.7686 -109.9997 81° East 499 574 41,000  Level Albuquerque Center
Fri 11:06:27 AM 34.7947 -109.8142 80° East 500 575 41,000  Level Albuquerque Center
Fri 11:07:29 AM 34.8172 -109.6567 80° East 497 572 41,000  Level Albuquerque Center
Fri 11:08:31 AM 34.8417 -109.4694 81° East 499 574 41,000  Level Albuquerque Center
Fri 11:09:33 AM 34.8636 -109.3100 80° East 501 577 41,000  Level Albuquerque Center
Fri 11:10:35 AM 34.8886 -109.1225 81° East 502 578 41,000  Level Albuquerque Center
Fri 11:11:37 AM 34.9100 -108.9619 81° East 503 579 41,000  Level Albuquerque Center
Fri 11:12:39 AM 34.9347 -108.7739 81° East 504 580 41,000  Level Albuquerque Center
Fri 11:13:41 AM 34.9550 -108.6128 81° East 504 580 41,000  Level Albuquerque Center
Fri 11:14:44 AM 34.9789 -108.4250 81° East 503 579 41,000  Level Albuquerque Center
Fri 11:15:46 AM 35.0000 -108.2625 81° East 506 582 41,000  Level Albuquerque Center
Fri 11:16:48 AM 35.0239 -108.0736 81° East 507 583 41,000  Level Albuquerque Center
Fri 11:17:50 AM 35.0433 -107.9111 82° East 507 583 41,000  Level Albuquerque Center
Fri 11:18:52 AM 35.0647 -107.7372 81° East 508 585 41,000  Level Albuquerque Center
Fri 11:19:54 AM 35.0844 -107.5658 82° East 508 585 41,000  Level Albuquerque Center
Fri 11:20:56 AM 35.1047 -107.3961 82° East 507 583 41,000  Level Albuquerque Center
Fri 11:21:58 AM 35.1247 -107.2231 82° East 510 587 41,000  Level Albuquerque Center
Fri 11:23:00 AM 35.1500 -107.0106 82° East 511 588 41,000  Level Albuquerque Center
Fri 11:24:02 AM 35.1681 -106.8483 82° East 505 581 41,000  Level Albuquerque Center
Fri 11:25:04 AM 35.1867 -106.6864 82° East 504 580 41,000  Level Albuquerque Center
Fri 11:26:06 AM 35.2067 -106.4928 83° East 506 582 41,000  Level Albuquerque Center
Fri 11:27:08 AM 35.2258 -106.3219 82° East 506 582 41,000  Level Albuquerque Center
Fri 11:28:10 AM 35.2419 -106.1572 83° East 501 577 41,000  Level Albuquerque Center
Fri 11:29:12 AM 35.2606 -105.9847 82° East 507 583 41,000  Level Albuquerque Center
Fri 11:30:14 AM 35.2844 -105.7814 82° East 513 590 41,000  Level Albuquerque Center
Fri 11:31:16 AM 35.3014 -105.6069 83° East 513 590 41,000  Level Albuquerque Center
Fri 11:32:18 AM 35.3200 -105.4314 83° East 514 592 41,000  Level Albuquerque Center
Fri 11:33:20 AM 35.3369 -105.2553 83° East 515 593 41,000  Level Albuquerque Center
Fri 11:34:22 AM 35.3544 -105.0775 83° East 517 595 41,000  Level Albuquerque Center
Fri 11:35:24 AM 35.3706 -104.9014 84° East 516 594 41,000  Level Albuquerque Center
Fri 11:36:26 AM 35.3875 -104.7231 83° East 520 598 41,000  Level Albuquerque Center
Fri 11:37:28 AM 35.4069 -104.5153 83° East 519 597 41,000  Level Albuquerque Center
Fri 11:38:31 AM 35.4233 -104.3358 84° East 519 597 41,000  Level Albuquerque Center
Fri 11:39:33 AM 35.4406 -104.1553 83° East 520 598 41,000  Level Albuquerque Center
Fri 11:40:35 AM 35.4561 -103.9753 84° East 520 598 41,000  Level Albuquerque Center
Fri 11:41:37 AM 35.4731 -103.7958 83° East 521 600 41,000  Level Albuquerque Center
Fri 11:42:39 AM 35.4875 -103.6183 84° East 519 597 41,000  Level Albuquerque Center
Fri 11:43:41 AM 35.5022 -103.4411 84° East 517 595 41,000  Level Albuquerque Center
Fri 11:44:43 AM 35.5178 -103.2636 84° East 519 597 41,000  Level Albuquerque Center
Fri 11:45:45 AM 35.5319 -103.0858 84° East 518 596 41,000 145 Level Albuquerque Center
Fri 11:46:47 AM 35.5475 -102.9072 84° East 520 598 41,300 581 Climbing Albuquerque Center
Fri 11:47:49 AM 35.5614 -102.7025 85° East 522 601 42,200 774 Climbing Albuquerque Center
Fri 11:48:51 AM 35.5758 -102.5253 84° East 522 601 42,900 677 Climbing Albuquerque Center
Fri 11:49:53 AM 35.5900 -102.3500 84° East 517 595 43,600 677 Climbing Albuquerque Center
Fri 11:50:55 AM 35.6025 -102.1742 85° East 516 594 44,300 677 Climbing Albuquerque Center
Fri 11:51:57 AM 35.6150 -102.0006 85° East 510 587 45,000 339 Climbing Albuquerque Center
Fri 11:52:59 AM 35.6275 -101.8269 85° East 508 585 45,000  Level Albuquerque Center
Fri 11:54:01 AM 35.6419 -101.6169 85° East 510 587 45,000  Level Albuquerque Center
Fri 11:55:03 AM 35.6528 -101.4417 86° East 510 587 45,000  Level Albuquerque Center
Fri 11:56:05 AM 35.6653 -101.2672 85° East 509 586 45,000  Level Albuquerque Center
Fri 11:57:07 AM 35.6764 -101.0936 85° East 508 585 45,000  Level Albuquerque Center
Fri 11:58:09 AM 35.6878 -100.9200 85° East 509 586 45,000  Level Albuquerque Center
Fri 11:59:11 AM 35.6981 -100.7458 86° East 510 587 45,000  Level Albuquerque Center
Fri 12:00:13 PM 35.7108 -100.5458 85° East 511 588 45,000  Level Albuquerque Center
Fri 12:01:16 PM 35.7208 -100.3719 86° East 511 588 45,000  Level Albuquerque Center
Fri 12:02:18 PM 35.7308 -100.1978 86° East 510 587 45,000  Level Albuquerque Center
Fri 12:03:20 PM 35.7408 -100.0236 86° East 510 587 45,000  Level Albuquerque Center
Fri 12:04:22 PM 35.7506 -99.8481 86° East 512 589 45,000  Level Albuquerque Center
Fri 12:05:24 PM 35.7592 -99.6744 86° East 511 588 45,000  Level Albuquerque Center
Fri 12:06:26 PM 35.7706 -99.4650 86° East 512 589 45,000  Level Albuquerque Center
Fri 12:06:56 PM 35.7742 -99.3961 86° East 517 595 45,000  Level Fort Worth Center
Fri 12:07:56 PM 35.7808 -99.2197 87° East 517 595 45,000  Level Fort Worth Center
Fri 12:08:56 PM 35.7897 -99.0433 86° East 517 595 45,000  Level Fort Worth Center
Fri 12:09:56 PM 35.7981 -98.8694 87° East 517 595 45,000  Level Fort Worth Center
Fri 12:10:56 PM 35.8061 -98.6931 87° East 517 595 45,000  Level Fort Worth Center
Fri 12:13:27 PM 35.8250 -98.2447 87° East 514 592 45,000  Level Kansas City Center
Fri 12:14:28 PM 35.8311 -98.0683 88° East 513 590 45,000  Level Kansas City Center
Fri 12:15:28 PM 35.8400 -97.8933 86° East 514 592 45,000  Level Kansas City Center
Fri 12:16:32 PM 35.8472 -97.7178 87° East 513 590 45,000  Level Kansas City Center
Fri 12:17:35 PM 35.8533 -97.5411 88° East 513 590 45,000  Level Kansas City Center
Fri 12:18:36 PM 35.8592 -97.3642 88° East 513 590 45,000  Level Kansas City Center
Fri 12:19:37 PM 35.8642 -97.1869 88° East 513 590 45,000  Level Kansas City Center
Fri 12:20:41 PM 35.8706 -96.9750 88° East 514 592 45,000  Level Kansas City Center
Fri 12:21:41 PM 35.8753 -96.7992 88° East 513 590 45,000  Level Kansas City Center
Fri 12:22:45 PM 35.8800 -96.6233 88° East 512 589 45,000  Level Kansas City Center
Fri 12:23:45 PM 35.8839 -96.4483 88° East 511 588 45,000  Level Kansas City Center
Fri 12:24:36 PM 35.8883 -96.2983 88° East 512 589 45,000  Level Kansas City Center
Fri 12:25:37 PM 35.8917 -96.1236 89° East 511 588 45,000  Level Kansas City Center
Fri 12:26:41 PM 35.8958 -95.9503 88° East 510 587 45,000  Level Kansas City Center
Fri 12:27:42 PM 35.9000 -95.7753 88° East 511 588 45,000  Level Kansas City Center
Fri 12:28:42 PM 35.9039 -95.5656 89° East 513 590 45,000  Level Kansas City Center
Fri 12:29:46 PM 35.9067 -95.3925 89° East 511 588 45,000  Level Kansas City Center
Fri 12:30:49 PM 35.9103 -95.2183 88° East 512 589 45,000  Level Kansas City Center
Fri 12:31:32 PM 35.9089 -95.0753 91° East 506 582 45,000  Level Memphis Center
Fri 12:32:32 PM 35.9133 -94.8986 88° East 506 582 45,000  Level Memphis Center
Fri 12:33:32 PM 35.9172 -94.7269 88° East 506 582 45,000  Level Memphis Center
Fri 12:34:32 PM 35.9172 -94.5503 90° East 511 588 45,000  Level Memphis Center
Fri 12:35:32 PM 35.9208 -94.3761 88° East 511 588 45,000  Level Memphis Center
Fri 12:36:33 PM 35.9222 -94.2019 89° East 516 594 45,000  Level Memphis Center
Fri 12:37:32 PM 35.9222 -94.0633 90° East 516 594 45,000  Level Memphis Center
Fri 12:38:32 PM 35.9217 -93.8686 90° East 516 594 45,000  Level Memphis Center
Fri 12:39:33 PM 35.9244 -93.6919 89° East 516 594 45,000  Level Memphis Center
Fri 12:40:32 PM 35.9247 -93.5175 90° East 516 594 45,000  Level Memphis Center
Fri 12:41:32 PM 35.9228 -93.3433 91° East 511 588 45,000  Level Memphis Center
Fri 12:42:33 PM 35.9228 -93.1639 90° East 516 594 45,000  Level Memphis Center
Fri 12:43:32 PM 35.9225 -92.9894 90° East 510 587 45,000  Level Memphis Center
Fri 12:44:32 PM 35.9219 -92.8125 90° East 510 587 45,000  Level Memphis Center
Fri 12:45:33 PM 35.9231 -92.6383 89° East 516 594 45,000  Level Memphis Center
Fri 12:46:32 PM 35.9200 -92.4614 91° East 516 594 45,000  Level Memphis Center
Fri 12:47:32 PM 35.9186 -92.2869 91° East 516 594 45,000  Level Memphis Center
Fri 12:48:32 PM 35.9169 -92.1103 91° East 516 594 45,000  Level Memphis Center
Fri 12:49:32 PM 35.9153 -91.9333 91° East 516 594 45,000  Level Memphis Center
Fri 12:50:32 PM 35.9131 -91.7564 91° East 516 594 45,000  Level Memphis Center
Fri 12:51:33 PM 35.9108 -91.5794 91° East 516 594 45,000  Level Memphis Center
Fri 12:52:32 PM 35.9042 -91.4053 93° East 516 594 45,000  Level Memphis Center
Fri 12:53:32 PM 35.8992 -91.2333 92° East 516 594 45,000  Level Memphis Center
Fri 12:54:33 PM 35.8961 -91.0617 91° East 511 588 45,000  Level Memphis Center
Fri 12:55:32 PM 35.8947 -90.8875 91° East 511 588 45,000  Level Memphis Center
Fri 12:56:33 PM 35.8911 -90.7131 91° East 511 588 45,000  Level Memphis Center
Fri 12:57:33 PM 35.8853 -90.5339 92° East 511 588 45,000  Level Memphis Center
Fri 12:58:33 PM 35.8814 -90.3544 91° East 518 596 45,000  Level Memphis Center
Fri 12:59:32 PM 35.8792 -90.1725 91° East 518 596 45,000  Level Memphis Center
Fri 01:00:33 PM 35.8725 -89.9933 93° East 518 596 45,000  Level Memphis Center
Fri 01:01:33 PM 35.8675 -89.8164 92° East 518 596 45,000  Level Memphis Center
Fri 01:02:33 PM 35.8603 -89.6372 93° East 518 596 45,000  Level Memphis Center
Fri 01:03:33 PM 35.8550 -89.4606 92° East 518 596 45,000  Level Memphis Center
Fri 01:04:33 PM 35.8492 -89.2608 92° East 518 596 45,000  Level Memphis Center
Fri 01:05:33 PM 35.8456 -89.0842 91° East 518 596 45,000  Level Memphis Center
Fri 01:06:33 PM 35.8394 -88.9050 92° East 518 596 45,000  Level Memphis Center
Fri 01:07:32 PM 35.8350 -88.7258 92° East 518 596 45,000  Level Memphis Center
Fri 01:08:33 PM 35.8264 -88.5519 93° East 518 596 45,000  Level Memphis Center
Fri 01:09:32 PM 35.8194 -88.3703 93° East 518 596 45,000  Level Memphis Center
Fri 01:10:32 PM 35.8122 -88.1914 93° East 518 596 45,000  Level Memphis Center
Fri 01:11:32 PM 35.8050 -88.0175 93° East 504 580 45,000 -99 Level Memphis Center
Fri 01:12:33 PM 35.7950 -87.8361 94° East 516 594 44,800 -400 Descending Memphis Center
Fri 01:13:32 PM 35.7869 -87.6522 93° East 531 611 44,200 -857 Descending Memphis Center
Fri 01:14:32 PM 35.7767 -87.4681 94° East 537 618 43,100 -1,091 Descending Memphis Center
Fri 01:15:33 PM 35.7683 -87.2972 93° East 542 624 42,000 -1,200 Descending Memphis Center
Fri 01:16:32 PM 35.7594 -87.1106 93° East 542 624 40,700 -1,311 Descending Memphis Center
Fri 01:17:32 PM 35.7481 -86.9192 94° East 555 639 39,400 -1,289 Descending Memphis Center
Fri 01:18:33 PM 35.7383 -86.7278 94° East 555 639 38,100 -1,438 Descending Memphis Center
Fri 01:19:33 PM 35.7286 -86.5364 94° East 555 639 36,500 -1,613 Descending Memphis Center
Fri 01:20:32 PM 35.7164 -86.3478 95° East 555 639 34,900 -1,250 Descending Memphis Center
Fri 01:21:33 PM 35.7061 -86.1617 94° East 550 633 34,000 -651 Descending Memphis Center
Fri 01:23:27 PM 35.6850 -85.7953 94° East 545 627 33,000 -345 Descending Atlanta Center
Fri 01:24:27 PM 35.6728 -85.6161 95° East 538 619 33,000  Level Atlanta Center
Fri 01:25:27 PM 35.6603 -85.4369 95° East 533 613 33,000  Level Atlanta Center
Fri 01:26:27 PM 35.6475 -85.2525 95° East 533 613 33,000 -450 Level Atlanta Center
Fri 01:27:27 PM 35.6367 -85.0686 94° East 533 613 32,100 -1,350 Descending Atlanta Center
Fri 01:28:27 PM 35.6236 -84.8844 95° East 544 626 30,300 -1,900 Descending Atlanta Center
Fri 01:29:27 PM 35.6100 -84.7028 95° East 544 626 28,300 -2,000 Descending Atlanta Center
Fri 01:30:27 PM 35.5964 -84.5214 95° East 531 611 26,300 -2,000 Descending Atlanta Center
Fri 01:31:27 PM 35.5844 -84.3528 95° East 525 604 24,300 -1,550 Descending Atlanta Center
Fri 01:32:27 PM 35.5700 -84.1792 96° East 511 588 23,200 -1,300 Descending Atlanta Center
Fri 01:33:27 PM 35.5575 -84.0031 95° East 511 588 21,700 -1,500 Descending Atlanta Center
Fri 01:34:27 PM 35.5428 -83.8422 96° East 498 573 20,200 -1,700 Descending Atlanta Center
Fri 01:35:27 PM 35.5319 -83.6839 95° East 482 555 18,300 -2,050 Descending Atlanta Center
Fri 01:36:27 PM 35.5189 -83.5311 96° East 459 528 16,100 -2,000 Descending Atlanta Center
Fri 01:37:27 PM 35.5100 -83.3856 94° East 445 512 14,300 -1,800 Descending Atlanta Center
Fri 01:38:27 PM 35.4944 -83.2456 98° East 424 488 12,500 -1,650 Descending Atlanta Center
Fri 01:39:27 PM 35.4831 -83.1103 96° East 410 472 11,000 -750 Descending Atlanta Center
Fri 01:40:27 PM 35.4758 -82.9906 94° East 376 433 11,000 -450 Level Atlanta Center
Fri 01:41:27 PM 35.4644 -82.8861 98° East 326 375 10,100 -1,400 Descending Atlanta Center
Fri 01:43:27 PM 35.4481 -82.6903 96° East 302 348 6,800 -1,600 Descending Atlanta Center
Fri 01:44:27 PM 35.4322 -82.5858 101° East 288 331 5,300 -1,500 Descending Atlanta Center

Login

Don't have an account? Register now (free) for customized features, flight alerts, and more!